Washington, NC

1:49 PM EDT on May 26, 2017 (GMT -0400)
Warren

Weather History for KOCW - December, 2012

Change the Weather History Date:

Thursday, December 13, 2012

  Actual Average (KPGV) Record (KPGV)
Temperature  
Mean Temperature 44 °F -  
Max Temperature 52 °F 56 °F 77 °F (1970)
Min Temperature 37 °F 35 °F 10 °F (1962)
Degree Days  
Heating Degree Days 20    
Moisture  
Dew Point 39 °F    
Average Humidity 79    
Maximum Humidity 81    
Minimum Humidity 71    
Precipitation  
Precipitation 0.57 in - - ()
Sea Level Pressure  
Sea Level Pressure 30.29 in    
Wind  
Wind Speed 11 mph (North)    
Max Wind Speed 16 mph    
Max Gust Speed 23 mph    
Visibility 8 miles    
Events Rain    
Averages and records for this station are not official NWS values.
T = Trace of Precipitation, MM = Missing Value Source: NWS Daily Summary

Daily Weather History Graph

Daily Weather History Graph

Search for Another Location

Airport or City:

Trip Planner

Search our weather history database for the weather conditions in past years. The results will help you decide how hot, cold, wet, or windy it might be!

Date:

Astronomy

Dec. 13, 2012 Rise Set
Actual Time 7:09 AM EST 4:56 PM EST
Civil Twilight 6:40 AM EST 5:24 PM EST
Nautical Twilight 6:09 AM EST 5:56 PM EST
Astronomical Twilight 5:38 AM EST 6:27 PM EST
Moon 7:16 AM EST (12/13) 5:35 PM EST (12/13)
Length of Visible Light 10h 43m
Length of Day
9h 46m
New Moon, 0% of the Moon is Illuminated
Dec 13
New Moon
Dec 20
First Quarter
Dec 28
Full
Jan 4
Last Quarter
Jan 11
New

Hourly Weather History & Observations

Time (EST) Temp. Windchill Dew Point Humidity Pressure Visibility Wind Dir Wind Speed Gust Speed Precip Events Conditions
12:15 AM 42.8 °F 36.6 °F 37.4 °F 81% 30.27 in 1.8 mi North 11.5 mph - 0.11 in   Unknown
12:35 AM 42.8 °F 36.6 °F 37.4 °F 81% 30.24 in 2.5 mi NNE 11.5 mph 18.4 mph 0.19 in   Overcast
12:55 AM 42.8 °F 36.6 °F 37.4 °F 81% 30.24 in 5.0 mi North 11.5 mph 17.3 mph 0.22 in Rain Rain
1:15 AM 42.8 °F 37.5 °F 37.4 °F 81% 30.26 in 4.0 mi North 9.2 mph - 0.04 in   Overcast
1:35 AM 42.8 °F 37.0 °F 37.4 °F 81% 30.25 in 3.0 mi North 10.4 mph - 0.07 in   Overcast
1:55 AM 42.8 °F 37.0 °F 37.4 °F 81% 30.25 in 5.0 mi North 10.4 mph - 0.10 in   Overcast
2:15 AM 42.8 °F 38.0 °F 37.2 °F 81% 30.29 in 4.0 mi North 8.1 mph - 0.03 in   Overcast
2:35 AM 42.8 °F 38.6 °F 37.0 °F 80% 30.28 in 4.0 mi North 6.9 mph - 0.08 in Rain Rain
2:55 AM 42.8 °F 37.5 °F 37.4 °F 81% 30.27 in 7.0 mi North 9.2 mph - 0.11 in Rain Rain
3:15 AM 42.8 °F 36.2 °F 37.4 °F 81% 30.26 in 5.0 mi NNE 12.7 mph - 0.03 in Rain Rain
3:35 AM 42.8 °F 35.8 °F 37.2 °F 81% 30.24 in 5.0 mi NNE 13.8 mph - 0.07 in Rain Light Rain
3:55 AM 42.8 °F 36.6 °F 37.4 °F 81% 30.23 in 7.0 mi NNE 11.5 mph 20.7 mph 0.09 in Rain Rain
4:15 AM 42.8 °F 35.1 °F 37.4 °F 81% 30.17 in 7.0 mi NE 16.1 mph 23.0 mph 0.03 in Rain Rain
4:35 AM 42.8 °F 35.8 °F 37.4 °F 81% 30.23 in 10.0 mi North 13.8 mph 17.3 mph 0.04 in Rain Light Rain
4:55 AM 42.8 °F 35.8 °F 37.2 °F 81% 30.24 in 10.0 mi North 13.8 mph - 0.04 in   Light Drizzle
5:15 AM 42.8 °F 36.2 °F 37.4 °F 81% 30.24 in 10.0 mi NNE 12.7 mph - 0.01 in   Overcast
5:35 AM 42.8 °F 36.2 °F 37.0 °F 80% 30.23 in 10.0 mi North 12.7 mph - 0.01 in   Overcast
5:55 AM 42.8 °F 36.2 °F 37.4 °F 81% 30.24 in 10.0 mi North 12.7 mph 19.6 mph 0.01 in   Overcast
6:15 AM 42.8 °F 36.6 °F 37.0 °F 80% 30.24 in 10.0 mi North 11.5 mph - N/A   Overcast
6:35 AM 42.8 °F 35.4 °F 37.0 °F 80% 30.24 in 10.0 mi North 15.0 mph - N/A   Overcast
6:55 AM 42.8 °F 35.8 °F 37.0 °F 80% 30.25 in 10.0 mi North 13.8 mph 20.7 mph N/A   Overcast
7:15 AM 42.8 °F 36.6 °F 37.0 °F 80% 30.26 in 10.0 mi North 11.5 mph - N/A   Overcast
7:35 AM 42.8 °F 36.6 °F 37.0 °F 80% 30.26 in 10.0 mi North 11.5 mph 17.3 mph N/A   Overcast
7:55 AM 42.8 °F 36.2 °F 37.0 °F 80% 30.27 in 10.0 mi North 12.7 mph 18.4 mph N/A   Overcast
8:15 AM 42.8 °F 36.6 °F 37.0 °F 80% 30.29 in 7.0 mi North 11.5 mph - N/A   Overcast
8:35 AM 42.8 °F 36.2 °F 37.0 °F 80% 30.29 in 7.0 mi North 12.7 mph 17.3 mph N/A   Overcast
8:55 AM 42.8 °F 37.0 °F 37.0 °F 80% 30.29 in 7.0 mi North 10.4 mph - N/A   Overcast
9:15 AM 42.8 °F 36.6 °F 37.0 °F 80% 30.30 in 7.0 mi North 11.5 mph - N/A   Overcast
9:35 AM 42.8 °F 36.6 °F 37.0 °F 80% 30.31 in 7.0 mi North 11.5 mph - N/A   Overcast
9:55 AM 43.2 °F 36.6 °F 37.6 °F 81% 30.31 in 7.0 mi NNW 12.7 mph - N/A   Scattered Clouds
10:15 AM 43.3 °F 35.8 °F 37.8 °F 81% 30.32 in 7.0 mi North 16.1 mph 19.6 mph N/A   Mostly Cloudy
10:35 AM 43.9 °F 37.9 °F 38.3 °F 81% 30.33 in 7.0 mi North 11.5 mph 17.3 mph N/A   Mostly Cloudy
10:55 AM 45.0 °F 38.9 °F 39.2 °F 80% 30.32 in 10.0 mi North 12.7 mph - N/A   Scattered Clouds
11:15 AM 45.1 °F 39.5 °F 39.2 °F 80% 30.32 in 10.0 mi North 11.5 mph 16.1 mph N/A   Scattered Clouds
11:35 AM 45.9 °F 40.0 °F 39.7 °F 79% 30.32 in 10.0 mi North 12.7 mph - N/A   Scattered Clouds
11:55 AM 46.9 °F - 40.6 °F 79% 30.32 in 10.0 mi North 11.5 mph 16.1 mph N/A   Scattered Clouds
12:15 PM 47.7 °F - 41.0 °F 78% 30.31 in 10.0 mi North 11.5 mph 17.3 mph N/A   Scattered Clouds
12:35 PM 48.2 °F - 41.2 °F 77% 30.31 in 10.0 mi North 15.0 mph 18.4 mph N/A   Mostly Cloudy
12:55 PM 48.4 °F - 41.2 °F 76% 30.30 in 10.0 mi North 13.8 mph 19.6 mph N/A   Scattered Clouds
1:15 PM 51.1 °F - 43.3 °F 75% 30.30 in 10.0 mi North 13.8 mph 20.7 mph N/A   Scattered Clouds
1:35 PM 52.7 °F - 44.6 °F 74% 30.29 in 10.0 mi North 15.0 mph 21.9 mph N/A   Scattered Clouds
1:55 PM 52.7 °F - 44.6 °F 74% 30.29 in 10.0 mi North 15.0 mph 20.7 mph N/A   Mostly Cloudy
2:15 PM 52.7 °F - 44.6 °F 74% 30.28 in 10.0 mi North 10.4 mph 20.7 mph N/A   Mostly Cloudy
2:35 PM 52.7 °F - 44.6 °F 74% 30.28 in 10.0 mi North 11.5 mph - N/A   Mostly Cloudy
2:55 PM 52.7 °F - 44.2 °F 73% 30.29 in 10.0 mi North 11.5 mph - N/A   Mostly Cloudy
3:15 PM 52.7 °F - 43.7 °F 71% 30.29 in 10.0 mi NNE 13.8 mph 20.7 mph N/A   Mostly Cloudy
3:35 PM 52.7 °F - 43.7 °F 71% 30.29 in 10.0 mi North 13.8 mph - N/A   Mostly Cloudy
3:55 PM 52.7 °F - 43.7 °F 71% 30.30 in 10.0 mi North 11.5 mph - N/A   Scattered Clouds
4:15 PM 52.7 °F - 43.9 °F 72% 30.30 in 10.0 mi North 13.8 mph 20.7 mph N/A   Scattered Clouds
4:35 PM 51.3 °F - 43.2 °F 74% 30.30 in 10.0 mi North 10.4 mph 17.3 mph N/A   Scattered Clouds
4:55 PM 50.2 °F - 42.3 °F 74% 30.30 in 10.0 mi North 10.4 mph - N/A   Clear
5:35 PM 47.5 °F - 40.6 °F 77% 30.30 in 10.0 mi North 10.4 mph - N/A   Clear
8:15 PM 42.8 °F 38.6 °F 37.4 °F 81% 30.34 in 10.0 mi North 6.9 mph - N/A   Clear
8:35 PM 42.8 °F 38.6 °F 37.4 °F 81% 30.34 in 10.0 mi North 6.9 mph - N/A   Clear
8:55 PM 42.8 °F 38.6 °F 36.7 °F 79% 30.33 in 10.0 mi North 6.9 mph - N/A   Clear
9:15 PM 42.8 °F 38.6 °F 36.9 °F 80% 30.33 in 10.0 mi North 6.9 mph - N/A   Clear
9:35 PM 42.8 °F 38.6 °F 37.0 °F 80% 30.33 in 10.0 mi North 6.9 mph - N/A   Clear
9:55 PM 40.6 °F 36.0 °F 35.2 °F 81% 30.34 in 10.0 mi North 6.9 mph - N/A   Clear
10:15 PM 40.1 °F 36.1 °F 34.7 °F 81% 30.34 in 10.0 mi North 5.8 mph - N/A   Clear
10:35 PM 40.1 °F 36.1 °F 34.7 °F 81% 30.34 in 10.0 mi North 5.8 mph - N/A   Clear
10:55 PM 40.1 °F 36.9 °F 34.7 °F 81% 30.34 in 10.0 mi North 4.6 mph - N/A   Clear
11:15 PM 38.7 °F 35.2 °F 33.3 °F 81% 30.34 in 10.0 mi North 4.6 mph - N/A   Clear
11:35 PM 37.6 °F 34.0 °F 32.2 °F 81% 30.34 in 10.0 mi North 4.6 mph - N/A   Clear
11:55 PM 37.6 °F 34.0 °F 32.2 °F 81% 30.34 in 10.0 mi North 4.6 mph - N/A   Clear